sensor_id;sensor_type;location;lat;lon;timestamp;temperature;humidity
59311;DHT22;45078;51.654;21.250;2023-02-01T00:01:42;2.60;99.90
59311;DHT22;45078;51.654;21.250;2023-02-01T00:04:08;2.50;99.90
59311;DHT22;45078;51.654;21.250;2023-02-01T00:06:34;2.50;99.90
59311;DHT22;45078;51.654;21.250;2023-02-01T00:09:00;2.40;99.90
59311;DHT22;45078;51.654;21.250;2023-02-01T00:11:26;2.40;99.90
59311;DHT22;45078;51.654;21.250;2023-02-01T00:13:52;2.40;99.90
59311;DHT22;45078;51.654;21.250;2023-02-01T00:16:25;2.40;99.90
59311;DHT22;45078;51.654;21.250;2023-02-01T00:18:55;2.40;99.90
59311;DHT22;45078;51.654;21.250;2023-02-01T00:21:21;2.40;99.90
59311;DHT22;45078;51.654;21.250;2023-02-01T00:23:48;2.50;99.90
59311;DHT22;45078;51.654;21.250;2023-02-01T00:26:19;2.50;99.90
59311;DHT22;45078;51.654;21.250;2023-02-01T00:28:45;2.50;99.90
59311;DHT22;45078;51.654;21.250;2023-02-01T00:31:11;2.50;99.90
59311;DHT22;45078;51.654;21.250;2023-02-01T00:33:37;2.50;99.90
59311;DHT22;45078;51.654;21.250;2023-02-01T00:36:05;2.50;99.90
59311;DHT22;45078;51.654;21.250;2023-02-01T00:38:33;2.50;99.90
59311;DHT22;45078;51.654;21.250;2023-02-01T00:41:09;2.50;99.90
59311;DHT22;45078;51.654;21.250;2023-02-01T00:43:36;2.60;99.90
59311;DHT22;45078;51.654;21.250;2023-02-01T00:46:02;2.70;99.90
59311;DHT22;45078;51.654;21.250;2023-02-01T00:48:28;2.70;99.90
59311;DHT22;45078;51.654;21.250;2023-02-01T00:50:54;2.70;99.90
59311;DHT22;45078;51.654;21.250;2023-02-01T00:53:20;2.60;99.90
59311;DHT22;45078;51.654;21.250;2023-02-01T00:55:47;2.60;99.90
59311;DHT22;45078;51.654;21.250;2023-02-01T00:58:13;2.80;99.90
59311;DHT22;45078;51.654;21.250;2023-02-01T01:00:39;2.80;99.90
59311;DHT22;45078;51.654;21.250;2023-02-01T01:03:05;2.90;99.90
59311;DHT22;45078;51.654;21.250;2023-02-01T01:05:46;2.90;99.90
59311;DHT22;45078;51.654;21.250;2023-02-01T01:08:13;2.90;99.90
59311;DHT22;45078;51.654;21.250;2023-02-01T01:10:39;2.90;99.90
59311;DHT22;45078;51.654;21.250;2023-02-01T01:13:05;3.00;99.90
59311;DHT22;45078;51.654;21.250;2023-02-01T01:15:31;3.00;99.90
59311;DHT22;45078;51.654;21.250;2023-02-01T01:17:56;3.00;99.90
59311;DHT22;45078;51.654;21.250;2023-02-01T01:20:22;3.00;99.90
59311;DHT22;45078;51.654;21.250;2023-02-01T01:22:48;3.00;99.90
59311;DHT22;45078;51.654;21.250;2023-02-01T01:25:14;3.00;99.90
59311;DHT22;45078;51.654;21.250;2023-02-01T01:27:40;3.00;99.90
59311;DHT22;45078;51.654;21.250;2023-02-01T01:30:06;3.00;99.90
59311;DHT22;45078;51.654;21.250;2023-02-01T01:32:33;3.00;99.90
59311;DHT22;45078;51.654;21.250;2023-02-01T01:34:58;3.00;99.90
59311;DHT22;45078;51.654;21.250;2023-02-01T01:37:24;3.00;99.90
59311;DHT22;45078;51.654;21.250;2023-02-01T01:39:50;3.10;99.90
59311;DHT22;45078;51.654;21.250;2023-02-01T01:42:16;3.10;99.90
59311;DHT22;45078;51.654;21.250;2023-02-01T01:50:57;3.10;99.90
59311;DHT22;45078;51.654;21.250;2023-02-01T01:53:30;3.00;99.90
59311;DHT22;45078;51.654;21.250;2023-02-01T01:55:57;3.00;99.90
59311;DHT22;45078;51.654;21.250;2023-02-01T01:58:25;3.00;99.90
59311;DHT22;45078;51.654;21.250;2023-02-01T02:00:52;3.00;99.90
59311;DHT22;45078;51.654;21.250;2023-02-01T02:03:26;3.00;99.90
59311;DHT22;45078;51.654;21.250;2023-02-01T02:05:54;3.00;99.90
59311;DHT22;45078;51.654;21.250;2023-02-01T02:08:24;2.90;99.90
59311;DHT22;45078;51.654;21.250;2023-02-01T02:10:50;2.90;99.90
59311;DHT22;45078;51.654;21.250;2023-02-01T02:13:29;2.90;99.90
59311;DHT22;45078;51.654;21.250;2023-02-01T02:19:08;2.80;99.90
59311;DHT22;45078;51.654;21.250;2023-02-01T02:31:16;2.80;99.90
59311;DHT22;45078;51.654;21.250;2023-02-01T02:53:48;2.70;99.90
59311;DHT22;45078;51.654;21.250;2023-02-01T02:56:37;2.70;99.90
59311;DHT22;45078;51.654;21.250;2023-02-01T02:59:25;2.70;99.90
59311;DHT22;45078;51.654;21.250;2023-02-01T03:02:10;2.80;99.90
59311;DHT22;45078;51.654;21.250;2023-02-01T03:04:56;2.70;99.90
59311;DHT22;45078;51.654;21.250;2023-02-01T03:16:10;2.80;99.90
59311;DHT22;45078;51.654;21.250;2023-02-01T03:19:00;2.80;99.90
59311;DHT22;45078;51.654;21.250;2023-02-01T03:21:47;2.80;99.90
59311;DHT22;45078;51.654;21.250;2023-02-01T03:24:21;2.80;99.90
59311;DHT22;45078;51.654;21.250;2023-02-01T03:26:54;2.80;99.90
59311;DHT22;45078;51.654;21.250;2023-02-01T03:29:37;2.90;99.90
59311;DHT22;45078;51.654;21.250;2023-02-01T03:32:03;2.90;99.90
59311;DHT22;45078;51.654;21.250;2023-02-01T03:34:29;2.80;99.90
59311;DHT22;45078;51.654;21.250;2023-02-01T03:40:07;2.80;99.90
59311;DHT22;45078;51.654;21.250;2023-02-01T03:42:35;2.80;99.90
59311;DHT22;45078;51.654;21.250;2023-02-01T03:47:49;2.80;99.90
59311;DHT22;45078;51.654;21.250;2023-02-01T03:50:20;2.80;99.90
59311;DHT22;45078;51.654;21.250;2023-02-01T03:53:02;2.80;99.90
59311;DHT22;45078;51.654;21.250;2023-02-01T03:55:30;2.90;99.90
59311;DHT22;45078;51.654;21.250;2023-02-01T03:58:16;2.80;99.90
59311;DHT22;45078;51.654;21.250;2023-02-01T04:00:55;2.80;99.90
59311;DHT22;45078;51.654;21.250;2023-02-01T04:03:21;2.90;99.90
59311;DHT22;45078;51.654;21.250;2023-02-01T04:05:49;2.80;99.90
59311;DHT22;45078;51.654;21.250;2023-02-01T04:08:15;2.90;99.90
59311;DHT22;45078;51.654;21.250;2023-02-01T04:10:40;2.90;99.90
59311;DHT22;45078;51.654;21.250;2023-02-01T04:13:06;2.80;99.90
59311;DHT22;45078;51.654;21.250;2023-02-01T04:15:33;2.90;99.90
59311;DHT22;45078;51.654;21.250;2023-02-01T04:18:00;2.90;99.90
59311;DHT22;45078;51.654;21.250;2023-02-01T04:20:26;2.80;99.90
59311;DHT22;45078;51.654;21.250;2023-02-01T04:22:52;2.80;99.90
59311;DHT22;45078;51.654;21.250;2023-02-01T04:25:17;2.70;99.90
59311;DHT22;45078;51.654;21.250;2023-02-01T04:27:43;2.70;99.90
59311;DHT22;45078;51.654;21.250;2023-02-01T04:30:10;2.70;99.90
59311;DHT22;45078;51.654;21.250;2023-02-01T04:32:37;2.80;99.90
59311;DHT22;45078;51.654;21.250;2023-02-01T04:35:03;2.80;99.90
59311;DHT22;45078;51.654;21.250;2023-02-01T04:37:29;2.70;99.90
59311;DHT22;45078;51.654;21.250;2023-02-01T04:39:55;2.70;99.90
59311;DHT22;45078;51.654;21.250;2023-02-01T04:42:21;2.80;99.90
59311;DHT22;45078;51.654;21.250;2023-02-01T04:44:47;2.80;99.90
59311;DHT22;45078;51.654;21.250;2023-02-01T04:47:13;2.80;99.90
59311;DHT22;45078;51.654;21.250;2023-02-01T04:49:40;2.80;99.90
59311;DHT22;45078;51.654;21.250;2023-02-01T04:52:05;2.70;99.90
59311;DHT22;45078;51.654;21.250;2023-02-01T04:54:31;2.80;99.90
59311;DHT22;45078;51.654;21.250;2023-02-01T04:56:57;2.80;99.90
59311;DHT22;45078;51.654;21.250;2023-02-01T04:59:23;2.80;99.90
59311;DHT22;45078;51.654;21.250;2023-02-01T05:01:49;2.80;99.90
59311;DHT22;45078;51.654;21.250;2023-02-01T05:04:15;2.80;99.90
59311;DHT22;45078;51.654;21.250;2023-02-01T05:06:40;2.80;99.90
59311;DHT22;45078;51.654;21.250;2023-02-01T05:09:06;2.80;99.90
59311;DHT22;45078;51.654;21.250;2023-02-01T05:11:32;2.80;99.90
59311;DHT22;45078;51.654;21.250;2023-02-01T05:14:16;2.80;99.90
59311;DHT22;45078;51.654;21.250;2023-02-01T05:16:42;2.80;99.90
59311;DHT22;45078;51.654;21.250;2023-02-01T05:19:08;2.80;99.90
59311;DHT22;45078;51.654;21.250;2023-02-01T05:21:34;2.90;99.90
59311;DHT22;45078;51.654;21.250;2023-02-01T05:23:59;2.90;99.90
59311;DHT22;45078;51.654;21.250;2023-02-01T05:26:43;2.80;99.90
59311;DHT22;45078;51.654;21.250;2023-02-01T05:29:10;2.80;99.90
59311;DHT22;45078;51.654;21.250;2023-02-01T05:31:36;2.90;99.90
59311;DHT22;45078;51.654;21.250;2023-02-01T05:34:02;2.90;99.90
59311;DHT22;45078;51.654;21.250;2023-02-01T05:36:28;2.90;99.90
59311;DHT22;45078;51.654;21.250;2023-02-01T05:38:53;2.90;99.90
59311;DHT22;45078;51.654;21.250;2023-02-01T05:41:19;2.80;99.90
59311;DHT22;45078;51.654;21.250;2023-02-01T05:43:45;2.80;99.90
59311;DHT22;45078;51.654;21.250;2023-02-01T05:46:11;2.80;99.90
59311;DHT22;45078;51.654;21.250;2023-02-01T05:48:39;2.80;99.90
59311;DHT22;45078;51.654;21.250;2023-02-01T05:51:05;2.90;99.90
59311;DHT22;45078;51.654;21.250;2023-02-01T05:53:31;2.80;99.90
59311;DHT22;45078;51.654;21.250;2023-02-01T05:55:56;2.90;99.90
59311;DHT22;45078;51.654;21.250;2023-02-01T05:58:22;2.90;99.90
59311;DHT22;45078;51.654;21.250;2023-02-01T06:00:48;2.80;99.90
59311;DHT22;45078;51.654;21.250;2023-02-01T06:03:14;2.80;99.90
59311;DHT22;45078;51.654;21.250;2023-02-01T06:05:39;2.80;99.90
59311;DHT22;45078;51.654;21.250;2023-02-01T06:08:05;2.90;99.90
59311;DHT22;45078;51.654;21.250;2023-02-01T06:10:33;2.80;99.90
59311;DHT22;45078;51.654;21.250;2023-02-01T06:12:59;2.90;99.90
59311;DHT22;45078;51.654;21.250;2023-02-01T06:15:24;2.80;99.90
59311;DHT22;45078;51.654;21.250;2023-02-01T06:17:50;2.80;99.90
59311;DHT22;45078;51.654;21.250;2023-02-01T06:20:17;2.80;99.90
59311;DHT22;45078;51.654;21.250;2023-02-01T06:22:42;2.80;99.90
59311;DHT22;45078;51.654;21.250;2023-02-01T06:25:10;2.80;99.90
59311;DHT22;45078;51.654;21.250;2023-02-01T06:27:36;2.80;99.90
59311;DHT22;45078;51.654;21.250;2023-02-01T06:30:03;2.80;99.90
59311;DHT22;45078;51.654;21.250;2023-02-01T06:32:29;2.90;99.90
59311;DHT22;45078;51.654;21.250;2023-02-01T06:34:55;2.90;99.90
59311;DHT22;45078;51.654;21.250;2023-02-01T06:37:22;2.90;99.90
59311;DHT22;45078;51.654;21.250;2023-02-01T06:39:48;2.90;99.90
59311;DHT22;45078;51.654;21.250;2023-02-01T06:42:14;2.90;99.90
59311;DHT22;45078;51.654;21.250;2023-02-01T06:44:40;3.00;99.90
59311;DHT22;45078;51.654;21.250;2023-02-01T06:47:06;3.00;99.90
59311;DHT22;45078;51.654;21.250;2023-02-01T06:49:32;3.00;99.90
59311;DHT22;45078;51.654;21.250;2023-02-01T06:51:58;3.00;99.90
59311;DHT22;45078;51.654;21.250;2023-02-01T06:54:26;2.90;99.90
59311;DHT22;45078;51.654;21.250;2023-02-01T06:56:52;3.00;99.90
59311;DHT22;45078;51.654;21.250;2023-02-01T06:59:18;3.00;99.90
59311;DHT22;45078;51.654;21.250;2023-02-01T07:01:44;3.00;99.90
59311;DHT22;45078;51.654;21.250;2023-02-01T07:04:11;3.10;99.90
59311;DHT22;45078;51.654;21.250;2023-02-01T07:06:38;3.10;99.90
59311;DHT22;45078;51.654;21.250;2023-02-01T07:09:04;3.10;99.90
59311;DHT22;45078;51.654;21.250;2023-02-01T07:11:29;3.20;99.90
59311;DHT22;45078;51.654;21.250;2023-02-01T07:13:56;3.20;99.90
59311;DHT22;45078;51.654;21.250;2023-02-01T07:16:22;3.30;99.90
59311;DHT22;45078;51.654;21.250;2023-02-01T07:18:50;3.40;99.90
59311;DHT22;45078;51.654;21.250;2023-02-01T07:21:16;3.40;99.90
59311;DHT22;45078;51.654;21.250;2023-02-01T07:23:42;3.50;99.90
59311;DHT22;45078;51.654;21.250;2023-02-01T07:26:10;3.70;99.90
59311;DHT22;45078;51.654;21.250;2023-02-01T07:28:37;3.80;99.90
59311;DHT22;45078;51.654;21.250;2023-02-01T07:31:08;3.80;99.90
59311;DHT22;45078;51.654;21.250;2023-02-01T07:33:34;4.10;99.90
59311;DHT22;45078;51.654;21.250;2023-02-01T07:36:02;4.70;99.90
59311;DHT22;45078;51.654;21.250;2023-02-01T07:38:29;5.30;99.90
59311;DHT22;45078;51.654;21.250;2023-02-01T07:40:59;5.20;99.90
59311;DHT22;45078;51.654;21.250;2023-02-01T07:43:26;4.80;99.90
59311;DHT22;45078;51.654;21.250;2023-02-01T07:45:53;4.50;99.90
59311;DHT22;45078;51.654;21.250;2023-02-01T07:48:19;4.40;99.90
59311;DHT22;45078;51.654;21.250;2023-02-01T07:50:45;4.10;99.90
59311;DHT22;45078;51.654;21.250;2023-02-01T07:53:11;4.00;99.90
59311;DHT22;45078;51.654;21.250;2023-02-01T07:55:40;3.80;99.90
59311;DHT22;45078;51.654;21.250;2023-02-01T07:58:06;3.80;99.90
59311;DHT22;45078;51.654;21.250;2023-02-01T08:00:32;3.90;99.90
59311;DHT22;45078;51.654;21.250;2023-02-01T08:03:16;3.80;99.90
59311;DHT22;45078;51.654;21.250;2023-02-01T08:05:42;3.80;99.90
59311;DHT22;45078;51.654;21.250;2023-02-01T08:08:08;3.90;99.90
59311;DHT22;45078;51.654;21.250;2023-02-01T08:10:34;3.90;99.90
59311;DHT22;45078;51.654;21.250;2023-02-01T08:13:01;3.80;99.90
59311;DHT22;45078;51.654;21.250;2023-02-01T08:15:28;3.90;99.90
59311;DHT22;45078;51.654;21.250;2023-02-01T08:17:54;3.90;99.90
59311;DHT22;45078;51.654;21.250;2023-02-01T08:20:21;3.80;99.90
59311;DHT22;45078;51.654;21.250;2023-02-01T08:22:51;3.80;99.90
59311;DHT22;45078;51.654;21.250;2023-02-01T08:25:17;3.80;99.90
59311;DHT22;45078;51.654;21.250;2023-02-01T08:27:43;3.80;99.90
59311;DHT22;45078;51.654;21.250;2023-02-01T08:30:10;3.80;99.90
59311;DHT22;45078;51.654;21.250;2023-02-01T08:32:36;3.90;99.90
59311;DHT22;45078;51.654;21.250;2023-02-01T08:35:03;3.80;99.90
59311;DHT22;45078;51.654;21.250;2023-02-01T08:37:29;3.90;99.90
59311;DHT22;45078;51.654;21.250;2023-02-01T08:39:55;3.90;99.90
59311;DHT22;45078;51.654;21.250;2023-02-01T08:42:21;3.80;99.90
59311;DHT22;45078;51.654;21.250;2023-02-01T08:45:05;3.80;99.90
59311;DHT22;45078;51.654;21.250;2023-02-01T08:47:34;3.70;99.90
59311;DHT22;45078;51.654;21.250;2023-02-01T08:49:59;3.70;99.90
59311;DHT22;45078;51.654;21.250;2023-02-01T08:52:25;3.60;99.90
59311;DHT22;45078;51.654;21.250;2023-02-01T08:54:51;3.50;99.90
59311;DHT22;45078;51.654;21.250;2023-02-01T08:57:17;3.50;99.90
59311;DHT22;45078;51.654;21.250;2023-02-01T08:59:43;3.40;99.90
59311;DHT22;45078;51.654;21.250;2023-02-01T09:02:13;3.40;99.90
59311;DHT22;45078;51.654;21.250;2023-02-01T09:04:39;3.30;99.90
59311;DHT22;45078;51.654;21.250;2023-02-01T09:07:05;3.30;99.90
59311;DHT22;45078;51.654;21.250;2023-02-01T09:09:31;3.20;99.90
59311;DHT22;45078;51.654;21.250;2023-02-01T09:11:56;3.20;99.90
59311;DHT22;45078;51.654;21.250;2023-02-01T09:14:22;3.20;99.90
59311;DHT22;45078;51.654;21.250;2023-02-01T09:16:48;3.20;99.90
59311;DHT22;45078;51.654;21.250;2023-02-01T09:19:17;3.30;99.90
59311;DHT22;45078;51.654;21.250;2023-02-01T09:21:43;3.40;99.90
59311;DHT22;45078;51.654;21.250;2023-02-01T09:24:12;3.40;99.90
59311;DHT22;45078;51.654;21.250;2023-02-01T09:26:38;3.40;99.90
59311;DHT22;45078;51.654;21.250;2023-02-01T09:29:04;3.50;99.90
59311;DHT22;45078;51.654;21.250;2023-02-01T09:31:36;3.50;99.90
59311;DHT22;45078;51.654;21.250;2023-02-01T09:34:02;3.60;99.90
59311;DHT22;45078;51.654;21.250;2023-02-01T09:36:28;3.70;99.90
59311;DHT22;45078;51.654;21.250;2023-02-01T09:38:54;3.60;99.90
59311;DHT22;45078;51.654;21.250;2023-02-01T09:46:58;3.90;99.90
59311;DHT22;45078;51.654;21.250;2023-02-01T09:49:31;4.10;99.90
59311;DHT22;45078;51.654;21.250;2023-02-01T09:52:00;4.20;99.90
59311;DHT22;45078;51.654;21.250;2023-02-01T09:54:42;4.30;99.90
59311;DHT22;45078;51.654;21.250;2023-02-01T09:57:13;4.40;99.90
59311;DHT22;45078;51.654;21.250;2023-02-01T09:59:44;4.50;99.90
59311;DHT22;45078;51.654;21.250;2023-02-01T10:02:19;4.50;99.90
59311;DHT22;45078;51.654;21.250;2023-02-01T10:04:47;4.50;99.90
59311;DHT22;45078;51.654;21.250;2023-02-01T10:10:02;4.70;99.90
59311;DHT22;45078;51.654;21.250;2023-02-01T10:12:43;4.80;99.90
59311;DHT22;45078;51.654;21.250;2023-02-01T10:20:36;5.10;99.90
59311;DHT22;45078;51.654;21.250;2023-02-01T10:23:47;5.10;99.90
59311;DHT22;45078;51.654;21.250;2023-02-01T10:26:24;5.00;99.90
59311;DHT22;45078;51.654;21.250;2023-02-01T10:28:57;5.10;99.90
59311;DHT22;45078;51.654;21.250;2023-02-01T10:31:26;5.10;99.90
59311;DHT22;45078;51.654;21.250;2023-02-01T10:33:59;5.40;99.90
59311;DHT22;45078;51.654;21.250;2023-02-01T10:36:32;5.30;99.90
59311;DHT22;45078;51.654;21.250;2023-02-01T10:39:01;5.20;99.90
59311;DHT22;45078;51.654;21.250;2023-02-01T10:41:33;5.10;99.90
59311;DHT22;45078;51.654;21.250;2023-02-01T10:44:03;5.00;99.90
59311;DHT22;45078;51.654;21.250;2023-02-01T10:46:31;4.70;99.90
59311;DHT22;45078;51.654;21.250;2023-02-01T10:48:58;4.80;99.90
59311;DHT22;45078;51.654;21.250;2023-02-01T10:51:36;4.50;99.90
59311;DHT22;45078;51.654;21.250;2023-02-01T10:54:20;4.60;99.90
59311;DHT22;45078;51.654;21.250;2023-02-01T10:56:48;4.70;99.90
59311;DHT22;45078;51.654;21.250;2023-02-01T10:59:20;4.70;99.90
59311;DHT22;45078;51.654;21.250;2023-02-01T11:01:49;4.70;99.90
59311;DHT22;45078;51.654;21.250;2023-02-01T11:04:19;4.70;99.90
59311;DHT22;45078;51.654;21.250;2023-02-01T11:09:38;4.60;99.90
59311;DHT22;45078;51.654;21.250;2023-02-01T11:12:05;4.50;99.90
59311;DHT22;45078;51.654;21.250;2023-02-01T11:14:38;4.40;99.90
59311;DHT22;45078;51.654;21.250;2023-02-01T11:19:46;4.40;99.90
59311;DHT22;45078;51.654;21.250;2023-02-01T11:22:13;4.30;99.90
59311;DHT22;45078;51.654;21.250;2023-02-01T11:24:40;4.30;99.90
59311;DHT22;45078;51.654;21.250;2023-02-01T11:27:18;4.40;99.90
59311;DHT22;45078;51.654;21.250;2023-02-01T11:29:49;4.30;99.90
59311;DHT22;45078;51.654;21.250;2023-02-01T11:32:18;4.30;99.90
59311;DHT22;45078;51.654;21.250;2023-02-01T11:34:47;4.30;99.90
59311;DHT22;45078;51.654;21.250;2023-02-01T11:37:38;4.30;99.90
59311;DHT22;45078;51.654;21.250;2023-02-01T11:40:34;4.20;99.90
59311;DHT22;45078;51.654;21.250;2023-02-01T11:46:17;4.10;99.90
59311;DHT22;45078;51.654;21.250;2023-02-01T11:48:47;4.00;99.90
59311;DHT22;45078;51.654;21.250;2023-02-01T11:54:04;4.10;99.90
59311;DHT22;45078;51.654;21.250;2023-02-01T11:56:37;4.10;99.90
59311;DHT22;45078;51.654;21.250;2023-02-01T11:59:25;4.10;99.90
59311;DHT22;45078;51.654;21.250;2023-02-01T12:02:20;4.20;99.90
59311;DHT22;45078;51.654;21.250;2023-02-01T12:10:39;4.10;99.90
59311;DHT22;45078;51.654;21.250;2023-02-01T12:13:30;4.20;99.90
59311;DHT22;45078;51.654;21.250;2023-02-01T12:16:16;4.30;99.90
59311;DHT22;45078;51.654;21.250;2023-02-01T12:24:29;4.30;99.90
59311;DHT22;45078;51.654;21.250;2023-02-01T12:30:02;4.30;99.90
59311;DHT22;45078;51.654;21.250;2023-02-01T12:33:27;4.30;99.90
59311;DHT22;45078;51.654;21.250;2023-02-01T12:41:35;4.40;99.90
59311;DHT22;45078;51.654;21.250;2023-02-01T12:47:17;4.40;99.90
59311;DHT22;45078;51.654;21.250;2023-02-01T12:52:42;4.30;99.90
59311;DHT22;45078;51.654;21.250;2023-02-01T12:55:32;4.30;99.90
59311;DHT22;45078;51.654;21.250;2023-02-01T13:00:48;4.40;99.90
59311;DHT22;45078;51.654;21.250;2023-02-01T13:03:59;4.40;99.90
59311;DHT22;45078;51.654;21.250;2023-02-01T13:12:00;4.60;99.90
59311;DHT22;45078;51.654;21.250;2023-02-01T13:15:00;4.60;99.90
59311;DHT22;45078;51.654;21.250;2023-02-01T13:17:30;4.80;99.90
59311;DHT22;45078;51.654;21.250;2023-02-01T13:20:03;5.00;99.90
59311;DHT22;45078;51.654;21.250;2023-02-01T13:22:59;5.10;99.90
59311;DHT22;45078;51.654;21.250;2023-02-01T13:25:39;5.10;99.90
59311;DHT22;45078;51.654;21.250;2023-02-01T13:28:15;5.70;99.90
59311;DHT22;45078;51.654;21.250;2023-02-01T13:30:54;6.40;99.90
59311;DHT22;45078;51.654;21.250;2023-02-01T13:33:59;6.40;99.90
59311;DHT22;45078;51.654;21.250;2023-02-01T13:36:44;6.60;99.90
59311;DHT22;45078;51.654;21.250;2023-02-01T13:42:27;6.30;99.90
59311;DHT22;45078;51.654;21.250;2023-02-01T13:45:03;5.90;99.90
59311;DHT22;45078;51.654;21.250;2023-02-01T13:47:40;5.70;99.90
59311;DHT22;45078;51.654;21.250;2023-02-01T13:50:32;5.50;99.90
59311;DHT22;45078;51.654;21.250;2023-02-01T13:53:11;5.40;99.90
59311;DHT22;45078;51.654;21.250;2023-02-01T13:55:44;5.30;99.90
59311;DHT22;45078;51.654;21.250;2023-02-01T13:58:39;5.10;99.90
59311;DHT22;45078;51.654;21.250;2023-02-01T14:04:01;5.00;99.90
59311;DHT22;45078;51.654;21.250;2023-02-01T14:11:42;6.50;99.90
59311;DHT22;45078;51.654;21.250;2023-02-01T14:16:44;6.40;99.90
59311;DHT22;45078;51.654;21.250;2023-02-01T14:19:31;5.90;99.90
59311;DHT22;45078;51.654;21.250;2023-02-01T14:24:55;5.60;99.90
59311;DHT22;45078;51.654;21.250;2023-02-01T14:27:25;5.40;99.90
59311;DHT22;45078;51.654;21.250;2023-02-01T14:30:01;5.20;99.90
59311;DHT22;45078;51.654;21.250;2023-02-01T14:32:33;5.10;99.90
59311;DHT22;45078;51.654;21.250;2023-02-01T14:35:01;5.10;99.90
59311;DHT22;45078;51.654;21.250;2023-02-01T14:37:31;4.90;99.90
59311;DHT22;45078;51.654;21.250;2023-02-01T14:47:45;4.70;99.90
59311;DHT22;45078;51.654;21.250;2023-02-01T15:03:55;4.40;99.90
59311;DHT22;45078;51.654;21.250;2023-02-01T15:14:34;4.40;99.90
59311;DHT22;45078;51.654;21.250;2023-02-01T15:17:00;4.40;99.90
59311;DHT22;45078;51.654;21.250;2023-02-01T15:19:28;4.30;99.90
59311;DHT22;45078;51.654;21.250;2023-02-01T15:21:57;4.30;99.90
59311;DHT22;45078;51.654;21.250;2023-02-01T15:24:26;4.30;99.90
59311;DHT22;45078;51.654;21.250;2023-02-01T15:26:53;4.30;99.90
59311;DHT22;45078;51.654;21.250;2023-02-01T15:29:22;4.30;99.90
59311;DHT22;45078;51.654;21.250;2023-02-01T15:31:52;4.40;99.90
59311;DHT22;45078;51.654;21.250;2023-02-01T15:34:19;4.40;99.90
59311;DHT22;45078;51.654;21.250;2023-02-01T15:36:46;4.40;99.90
59311;DHT22;45078;51.654;21.250;2023-02-01T15:39:23;4.40;99.90
59311;DHT22;45078;51.654;21.250;2023-02-01T15:42:00;4.40;99.90
59311;DHT22;45078;51.654;21.250;2023-02-01T15:44:34;4.40;99.90
59311;DHT22;45078;51.654;21.250;2023-02-01T15:47:13;4.40;99.90
59311;DHT22;45078;51.654;21.250;2023-02-01T15:49:41;4.40;99.90
59311;DHT22;45078;51.654;21.250;2023-02-01T15:52:34;4.30;99.90
59311;DHT22;45078;51.654;21.250;2023-02-01T15:55:03;4.40;99.90
59311;DHT22;45078;51.654;21.250;2023-02-01T15:57:35;4.40;99.90
59311;DHT22;45078;51.654;21.250;2023-02-01T16:00:22;4.40;99.90
59311;DHT22;45078;51.654;21.250;2023-02-01T16:05:45;4.30;99.90
59311;DHT22;45078;51.654;21.250;2023-02-01T16:08:19;4.20;99.90
59311;DHT22;45078;51.654;21.250;2023-02-01T16:10:50;4.10;99.90
59311;DHT22;45078;51.654;21.250;2023-02-01T16:13:17;4.20;99.90
59311;DHT22;45078;51.654;21.250;2023-02-01T16:15:44;4.10;99.90
59311;DHT22;45078;51.654;21.250;2023-02-01T16:18:10;4.10;99.90
59311;DHT22;45078;51.654;21.250;2023-02-01T16:20:39;4.10;99.90
59311;DHT22;45078;51.654;21.250;2023-02-01T16:23:06;4.00;99.90
59311;DHT22;45078;51.654;21.250;2023-02-01T16:25:32;3.90;99.90
59311;DHT22;45078;51.654;21.250;2023-02-01T16:27:58;3.90;99.90
59311;DHT22;45078;51.654;21.250;2023-02-01T16:30:24;3.80;99.90
59311;DHT22;45078;51.654;21.250;2023-02-01T16:32:55;3.80;99.90
59311;DHT22;45078;51.654;21.250;2023-02-01T16:35:28;3.80;99.90
59311;DHT22;45078;51.654;21.250;2023-02-01T16:37:56;3.70;99.90
59311;DHT22;45078;51.654;21.250;2023-02-01T16:40:21;3.70;99.90
59311;DHT22;45078;51.654;21.250;2023-02-01T16:42:50;3.70;99.90
59311;DHT22;45078;51.654;21.250;2023-02-01T16:45:17;3.70;99.90
59311;DHT22;45078;51.654;21.250;2023-02-01T16:47:48;3.70;99.90
59311;DHT22;45078;51.654;21.250;2023-02-01T16:50:24;3.70;99.90
59311;DHT22;45078;51.654;21.250;2023-02-01T16:52:51;3.80;99.90
59311;DHT22;45078;51.654;21.250;2023-02-01T16:55:19;3.70;99.90
59311;DHT22;45078;51.654;21.250;2023-02-01T16:57:46;3.80;99.90
59311;DHT22;45078;51.654;21.250;2023-02-01T17:00:13;3.80;99.90
59311;DHT22;45078;51.654;21.250;2023-02-01T17:02:41;3.80;99.90
59311;DHT22;45078;51.654;21.250;2023-02-01T17:05:08;3.80;99.90
59311;DHT22;45078;51.654;21.250;2023-02-01T17:07:35;3.80;99.90
59311;DHT22;45078;51.654;21.250;2023-02-01T17:10:04;3.80;99.90
59311;DHT22;45078;51.654;21.250;2023-02-01T17:12:32;3.80;99.90
59311;DHT22;45078;51.654;21.250;2023-02-01T17:14:59;3.80;99.90
59311;DHT22;45078;51.654;21.250;2023-02-01T17:17:36;3.80;99.90
59311;DHT22;45078;51.654;21.250;2023-02-01T17:20:05;3.80;99.90
59311;DHT22;45078;51.654;21.250;2023-02-01T17:22:32;3.80;99.90
59311;DHT22;45078;51.654;21.250;2023-02-01T17:24:58;3.80;99.90
59311;DHT22;45078;51.654;21.250;2023-02-01T17:27:24;3.80;99.90
59311;DHT22;45078;51.654;21.250;2023-02-01T17:29:50;3.70;99.90
59311;DHT22;45078;51.654;21.250;2023-02-01T17:32:24;3.70;99.90
59311;DHT22;45078;51.654;21.250;2023-02-01T17:34:50;3.70;99.90
59311;DHT22;45078;51.654;21.250;2023-02-01T17:37:28;3.70;99.90
59311;DHT22;45078;51.654;21.250;2023-02-01T17:39:54;3.70;99.90
59311;DHT22;45078;51.654;21.250;2023-02-01T17:42:21;3.60;99.90
59311;DHT22;45078;51.654;21.250;2023-02-01T17:44:49;3.60;99.90
59311;DHT22;45078;51.654;21.250;2023-02-01T17:47:15;3.50;99.90
59311;DHT22;45078;51.654;21.250;2023-02-01T17:49:41;3.50;99.90
59311;DHT22;45078;51.654;21.250;2023-02-01T17:52:13;3.50;99.90
59311;DHT22;45078;51.654;21.250;2023-02-01T17:54:41;3.50;99.90
59311;DHT22;45078;51.654;21.250;2023-02-01T17:57:13;3.50;99.90
59311;DHT22;45078;51.654;21.250;2023-02-01T17:59:39;3.40;99.90
59311;DHT22;45078;51.654;21.250;2023-02-01T18:02:22;3.40;99.90
59311;DHT22;45078;51.654;21.250;2023-02-01T18:04:49;3.30;99.90
59311;DHT22;45078;51.654;21.250;2023-02-01T18:07:16;3.30;99.90
59311;DHT22;45078;51.654;21.250;2023-02-01T18:09:42;3.20;99.90
59311;DHT22;45078;51.654;21.250;2023-02-01T18:12:18;3.20;99.90
59311;DHT22;45078;51.654;21.250;2023-02-01T18:14:45;3.20;99.90
59311;DHT22;45078;51.654;21.250;2023-02-01T18:17:11;3.30;99.90
59311;DHT22;45078;51.654;21.250;2023-02-01T18:19:37;3.20;99.90
59311;DHT22;45078;51.654;21.250;2023-02-01T18:22:03;3.30;99.90
59311;DHT22;45078;51.654;21.250;2023-02-01T18:24:30;3.30;99.90
59311;DHT22;45078;51.654;21.250;2023-02-01T18:26:58;3.30;99.90
59311;DHT22;45078;51.654;21.250;2023-02-01T18:29:25;3.30;99.90
59311;DHT22;45078;51.654;21.250;2023-02-01T18:31:51;3.30;99.90